sensor_id;sensor_type;location;lat;lon;timestamp;pressure;altitude;pressure_sealevel;temperature
34125;BMP280;20110;53.120;5.786;2023-12-20T00:00:36;101274.13;;;10.70
34125;BMP280;20110;53.120;5.786;2023-12-20T00:03:03;101301.13;;;10.74
34125;BMP280;20110;53.120;5.786;2023-12-20T00:05:30;101275.56;;;10.41
34125;BMP280;20110;53.120;5.786;2023-12-20T00:08:03;101289.94;;;10.51
34125;BMP280;20110;53.120;5.786;2023-12-20T00:10:30;101265.81;;;10.19
34125;BMP280;20110;53.120;5.786;2023-12-20T00:12:56;101211.56;;;9.74
34125;BMP280;20110;53.120;5.786;2023-12-20T00:15:21;101296.13;;;10.29
34125;BMP280;20110;53.120;5.786;2023-12-20T00:17:47;101265.84;;;10.08
34125;BMP280;20110;53.120;5.786;2023-12-20T00:20:13;101278.19;;;10.06
34125;BMP280;20110;53.120;5.786;2023-12-20T00:22:39;101299.34;;;10.17
34125;BMP280;20110;53.120;5.786;2023-12-20T00:25:05;101211.84;;;9.59
34125;BMP280;20110;53.120;5.786;2023-12-20T00:27:30;101288.88;;;10.35
34125;BMP280;20110;53.120;5.786;2023-12-20T00:30:02;101267.88;;;10.32
34125;BMP280;20110;53.120;5.786;2023-12-20T00:32:28;101257.72;;;10.36
34125;BMP280;20110;53.120;5.786;2023-12-20T00:34:53;101190.47;;;9.92
34125;BMP280;20110;53.120;5.786;2023-12-20T00:37:19;101288.75;;;10.52
34125;BMP280;20110;53.120;5.786;2023-12-20T00:39:45;101289.69;;;10.55
34125;BMP280;20110;53.120;5.786;2023-12-20T00:42:10;101268.47;;;10.49
34125;BMP280;20110;53.120;5.786;2023-12-20T00:44:36;101275.91;;;10.56
34125;BMP280;20110;53.120;5.786;2023-12-20T00:47:02;101170.91;;;9.95
34125;BMP280;20110;53.120;5.786;2023-12-20T00:49:28;101227.84;;;10.30
34125;BMP280;20110;53.120;5.786;2023-12-20T00:51:54;101282.41;;;10.61
34125;BMP280;20110;53.120;5.786;2023-12-20T00:54:19;101276.81;;;10.64
34125;BMP280;20110;53.120;5.786;2023-12-20T00:56:45;101216.44;;;10.35
34125;BMP280;20110;53.120;5.786;2023-12-20T00:59:11;101278.63;;;10.81
34125;BMP280;20110;53.120;5.786;2023-12-20T01:01:36;101259.13;;;10.73
34125;BMP280;20110;53.120;5.786;2023-12-20T01:04:02;101241.84;;;10.60
34125;BMP280;20110;53.120;5.786;2023-12-20T01:06:28;101270.88;;;10.83
34125;BMP280;20110;53.120;5.786;2023-12-20T01:08:54;101188.47;;;10.34
34125;BMP280;20110;53.120;5.786;2023-12-20T01:11:19;101148.84;;;10.12
34125;BMP280;20110;53.120;5.786;2023-12-20T01:13:45;101174.44;;;10.39
34125;BMP280;20110;53.120;5.786;2023-12-20T01:16:11;101244.75;;;10.87
34125;BMP280;20110;53.120;5.786;2023-12-20T01:18:37;101249.22;;;10.73
34125;BMP280;20110;53.120;5.786;2023-12-20T01:21:04;101192.66;;;10.24
34125;BMP280;20110;53.120;5.786;2023-12-20T01:23:31;101234.41;;;10.53
34125;BMP280;20110;53.120;5.786;2023-12-20T01:25:57;101233.69;;;11.07
34125;BMP280;20110;53.120;5.786;2023-12-20T01:28:25;101244.78;;;12.18
34125;BMP280;20110;53.120;5.786;2023-12-20T01:30:51;101259.25;;;12.41
34125;BMP280;20110;53.120;5.786;2023-12-20T01:33:17;101176.78;;;11.72
34125;BMP280;20110;53.120;5.786;2023-12-20T01:35:42;101223.13;;;11.95
34125;BMP280;20110;53.120;5.786;2023-12-20T01:38:09;101251.91;;;12.29
34125;BMP280;20110;53.120;5.786;2023-12-20T01:40:34;101219.34;;;12.23
34125;BMP280;20110;53.120;5.786;2023-12-20T01:43:10;101246.44;;;12.53
34125;BMP280;20110;53.120;5.786;2023-12-20T01:45:38;101252.81;;;12.63
34125;BMP280;20110;53.120;5.786;2023-12-20T01:48:05;101259.66;;;12.59
34125;BMP280;20110;53.120;5.786;2023-12-20T01:50:31;101252.91;;;12.58
34125;BMP280;20110;53.120;5.786;2023-12-20T01:52:59;101233.50;;;12.44
34125;BMP280;20110;53.120;5.786;2023-12-20T01:55:27;101221.13;;;12.46
34125;BMP280;20110;53.120;5.786;2023-12-20T01:57:55;101241.13;;;12.66
34125;BMP280;20110;53.120;5.786;2023-12-20T02:00:22;101198.69;;;12.42
34125;BMP280;20110;53.120;5.786;2023-12-20T02:02:50;101203.88;;;12.47
34125;BMP280;20110;53.120;5.786;2023-12-20T02:05:20;101216.91;;;12.51
34125;BMP280;20110;53.120;5.786;2023-12-20T02:07:46;101134.56;;;11.82
34125;BMP280;20110;53.120;5.786;2023-12-20T02:10:12;101181.19;;;12.01
34125;BMP280;20110;53.120;5.786;2023-12-20T02:12:38;101184.88;;;12.11
34125;BMP280;20110;53.120;5.786;2023-12-20T02:15:04;101087.66;;;11.33
34125;BMP280;20110;53.120;5.786;2023-12-20T02:17:32;101153.25;;;11.76
34125;BMP280;20110;53.120;5.786;2023-12-20T02:19:59;101238.19;;;12.38
34125;BMP280;20110;53.120;5.786;2023-12-20T02:22:24;101205.41;;;12.17
34125;BMP280;20110;53.120;5.786;2023-12-20T02:24:50;101177.53;;;12.04
34125;BMP280;20110;53.120;5.786;2023-12-20T02:27:18;101220.88;;;12.31
34125;BMP280;20110;53.120;5.786;2023-12-20T02:29:46;101220.06;;;12.23
34125;BMP280;20110;53.120;5.786;2023-12-20T02:32:12;101176.75;;;11.91
34125;BMP280;20110;53.120;5.786;2023-12-20T02:34:38;101198.72;;;12.10
34125;BMP280;20110;53.120;5.786;2023-12-20T02:37:04;101209.28;;;12.16
34125;BMP280;20110;53.120;5.786;2023-12-20T02:39:30;101205.03;;;12.07
34125;BMP280;20110;53.120;5.786;2023-12-20T02:41:56;101118.69;;;11.44
34125;BMP280;20110;53.120;5.786;2023-12-20T02:44:21;101196.28;;;11.80
34125;BMP280;20110;53.120;5.786;2023-12-20T02:46:47;101195.09;;;11.75
34125;BMP280;20110;53.120;5.786;2023-12-20T02:49:13;101169.81;;;11.50
34125;BMP280;20110;53.120;5.786;2023-12-20T02:51:38;101102.31;;;11.02
34125;BMP280;20110;53.120;5.786;2023-12-20T02:54:04;101105.34;;;11.12
34125;BMP280;20110;53.120;5.786;2023-12-20T02:56:34;101129.59;;;11.22
34125;BMP280;20110;53.120;5.786;2023-12-20T02:59:00;101188.16;;;11.72
34125;BMP280;20110;53.120;5.786;2023-12-20T03:01:27;101142.19;;;11.40
34125;BMP280;20110;53.120;5.786;2023-12-20T03:03:53;101086.72;;;11.12
34125;BMP280;20110;53.120;5.786;2023-12-20T03:06:19;101173.75;;;11.81
34125;BMP280;20110;53.120;5.786;2023-12-20T03:08:45;101107.19;;;11.36
34125;BMP280;20110;53.120;5.786;2023-12-20T03:11:11;101163.63;;;11.80
34125;BMP280;20110;53.120;5.786;2023-12-20T03:13:36;101164.38;;;11.61
34125;BMP280;20110;53.120;5.786;2023-12-20T03:16:12;101155.25;;;11.57
34125;BMP280;20110;53.120;5.786;2023-12-20T03:18:38;101176.16;;;11.66
34125;BMP280;20110;53.120;5.786;2023-12-20T03:21:04;101170.59;;;11.64
34125;BMP280;20110;53.120;5.786;2023-12-20T03:23:31;101170.19;;;11.79
34125;BMP280;20110;53.120;5.786;2023-12-20T03:25:58;101141.63;;;11.79
34125;BMP280;20110;53.120;5.786;2023-12-20T03:28:24;101103.28;;;11.56
34125;BMP280;20110;53.120;5.786;2023-12-20T03:30:50;101167.06;;;11.74
34125;BMP280;20110;53.120;5.786;2023-12-20T03:33:16;101168.97;;;11.61
34125;BMP280;20110;53.120;5.786;2023-12-20T03:35:41;101162.94;;;11.60
34125;BMP280;20110;53.120;5.786;2023-12-20T03:38:07;101078.53;;;10.91
34125;BMP280;20110;53.120;5.786;2023-12-20T03:40:33;101169.81;;;11.69
34125;BMP280;20110;53.120;5.786;2023-12-20T03:42:59;101175.03;;;11.74
34125;BMP280;20110;53.120;5.786;2023-12-20T03:45:25;101155.88;;;11.63
34125;BMP280;20110;53.120;5.786;2023-12-20T03:47:51;101138.47;;;11.62
34125;BMP280;20110;53.120;5.786;2023-12-20T03:50:24;101161.56;;;11.72
34125;BMP280;20110;53.120;5.786;2023-12-20T03:52:50;101146.59;;;11.69
34125;BMP280;20110;53.120;5.786;2023-12-20T03:55:16;101154.41;;;11.81
34125;BMP280;20110;53.120;5.786;2023-12-20T03:57:42;101149.00;;;11.86
34125;BMP280;20110;53.120;5.786;2023-12-20T04:00:08;101136.38;;;11.87
34125;BMP280;20110;53.120;5.786;2023-12-20T04:02:41;101109.44;;;11.64
34125;BMP280;20110;53.120;5.786;2023-12-20T04:05:08;101102.16;;;11.64
34125;BMP280;20110;53.120;5.786;2023-12-20T04:07:37;101130.06;;;11.77
34125;BMP280;20110;53.120;5.786;2023-12-20T04:10:04;101104.72;;;11.57
34125;BMP280;20110;53.120;5.786;2023-12-20T04:12:30;101058.22;;;11.13
34125;BMP280;20110;53.120;5.786;2023-12-20T04:14:56;101127.00;;;11.54
34125;BMP280;20110;53.120;5.786;2023-12-20T04:17:22;101116.78;;;11.58
34125;BMP280;20110;53.120;5.786;2023-12-20T04:19:51;101088.06;;;11.37
34125;BMP280;20110;53.120;5.786;2023-12-20T04:22:17;101126.53;;;11.68
34125;BMP280;20110;53.120;5.786;2023-12-20T04:24:43;101074.47;;;11.41
34125;BMP280;20110;53.120;5.786;2023-12-20T04:27:08;101124.72;;;11.77
34125;BMP280;20110;53.120;5.786;2023-12-20T04:29:34;101087.38;;;11.50
34125;BMP280;20110;53.120;5.786;2023-12-20T04:32:00;101131.00;;;11.79
34125;BMP280;20110;53.120;5.786;2023-12-20T04:34:26;101122.41;;;11.86
34125;BMP280;20110;53.120;5.786;2023-12-20T04:36:52;101054.97;;;11.52
34125;BMP280;20110;53.120;5.786;2023-12-20T04:39:18;101128.31;;;11.79
34125;BMP280;20110;53.120;5.786;2023-12-20T04:41:44;101117.16;;;11.81
34125;BMP280;20110;53.120;5.786;2023-12-20T04:44:10;101093.59;;;11.71
34125;BMP280;20110;53.120;5.786;2023-12-20T04:46:35;101107.66;;;11.85
34125;BMP280;20110;53.120;5.786;2023-12-20T04:49:01;101081.38;;;11.63
34125;BMP280;20110;53.120;5.786;2023-12-20T04:51:27;101110.94;;;11.78
34125;BMP280;20110;53.120;5.786;2023-12-20T04:53:53;101110.13;;;11.96
34125;BMP280;20110;53.120;5.786;2023-12-20T04:56:18;101095.78;;;11.86
34125;BMP280;20110;53.120;5.786;2023-12-20T04:58:44;101100.50;;;12.06
34125;BMP280;20110;53.120;5.786;2023-12-20T05:01:10;101072.31;;;11.71
34125;BMP280;20110;53.120;5.786;2023-12-20T05:03:37;101113.50;;;11.97
34125;BMP280;20110;53.120;5.786;2023-12-20T05:06:03;101112.91;;;12.04
34125;BMP280;20110;53.120;5.786;2023-12-20T05:08:29;101109.53;;;11.90
34125;BMP280;20110;53.120;5.786;2023-12-20T05:10:54;101055.25;;;11.67
34125;BMP280;20110;53.120;5.786;2023-12-20T05:13:20;101072.44;;;11.79
34125;BMP280;20110;53.120;5.786;2023-12-20T05:15:46;101053.19;;;11.73
34125;BMP280;20110;53.120;5.786;2023-12-20T05:18:12;101042.81;;;11.56
34125;BMP280;20110;53.120;5.786;2023-12-20T05:20:38;101084.63;;;11.88
34125;BMP280;20110;53.120;5.786;2023-12-20T05:23:04;101029.94;;;11.60
34125;BMP280;20110;53.120;5.786;2023-12-20T05:25:30;101048.91;;;11.83
34125;BMP280;20110;53.120;5.786;2023-12-20T05:27:56;101092.75;;;12.48
34125;BMP280;20110;53.120;5.786;2023-12-20T05:30:21;101090.03;;;12.88
34125;BMP280;20110;53.120;5.786;2023-12-20T05:32:47;101082.84;;;13.16
34125;BMP280;20110;53.120;5.786;2023-12-20T05:35:13;101092.03;;;13.08
34125;BMP280;20110;53.120;5.786;2023-12-20T05:37:39;101048.72;;;12.47
34125;BMP280;20110;53.120;5.786;2023-12-20T05:40:05;101096.22;;;12.69
34125;BMP280;20110;53.120;5.786;2023-12-20T05:42:31;101078.72;;;12.47
34125;BMP280;20110;53.120;5.786;2023-12-20T05:44:57;101082.28;;;12.50
34125;BMP280;20110;53.120;5.786;2023-12-20T05:47:22;101075.34;;;12.34
34125;BMP280;20110;53.120;5.786;2023-12-20T05:49:48;100994.88;;;11.88
34125;BMP280;20110;53.120;5.786;2023-12-20T05:52:15;101077.81;;;12.45
34125;BMP280;20110;53.120;5.786;2023-12-20T05:54:41;101060.25;;;12.50
34125;BMP280;20110;53.120;5.786;2023-12-20T05:57:07;101074.81;;;12.48
34125;BMP280;20110;53.120;5.786;2023-12-20T05:59:32;101048.13;;;12.15
34125;BMP280;20110;53.120;5.786;2023-12-20T06:01:58;100977.97;;;11.59
34125;BMP280;20110;53.120;5.786;2023-12-20T06:04:23;100983.50;;;11.74
34125;BMP280;20110;53.120;5.786;2023-12-20T06:06:49;101049.00;;;12.57
34125;BMP280;20110;53.120;5.786;2023-12-20T06:09:15;101056.50;;;12.32
34125;BMP280;20110;53.120;5.786;2023-12-20T06:11:40;101070.03;;;12.34
34125;BMP280;20110;53.120;5.786;2023-12-20T06:14:06;101074.44;;;12.31
34125;BMP280;20110;53.120;5.786;2023-12-20T06:16:32;101021.38;;;11.81
34125;BMP280;20110;53.120;5.786;2023-12-20T06:18:58;101067.03;;;12.24
34125;BMP280;20110;53.120;5.786;2023-12-20T06:21:23;101074.66;;;12.33
34125;BMP280;20110;53.120;5.786;2023-12-20T06:23:49;101003.69;;;11.96
34125;BMP280;20110;53.120;5.786;2023-12-20T06:26:15;101067.53;;;12.49
34125;BMP280;20110;53.120;5.786;2023-12-20T06:28:41;101081.88;;;12.59
34125;BMP280;20110;53.120;5.786;2023-12-20T06:31:06;101067.84;;;12.59
34125;BMP280;20110;53.120;5.786;2023-12-20T06:33:32;100970.31;;;11.82
34125;BMP280;20110;53.120;5.786;2023-12-20T06:35:58;101076.75;;;12.48
34125;BMP280;20110;53.120;5.786;2023-12-20T06:38:24;101080.75;;;12.55
34125;BMP280;20110;53.120;5.786;2023-12-20T06:40:49;100956.50;;;11.84
34125;BMP280;20110;53.120;5.786;2023-12-20T06:43:15;101026.38;;;12.37
34125;BMP280;20110;53.120;5.786;2023-12-20T06:45:41;100950.88;;;11.87
34125;BMP280;20110;53.120;5.786;2023-12-20T06:48:07;101038.13;;;12.55
34125;BMP280;20110;53.120;5.786;2023-12-20T06:50:32;101003.88;;;12.25
34125;BMP280;20110;53.120;5.786;2023-12-20T06:52:58;100964.91;;;11.88
34125;BMP280;20110;53.120;5.786;2023-12-20T06:55:24;101027.78;;;12.51
34125;BMP280;20110;53.120;5.786;2023-12-20T06:57:50;101030.28;;;12.36
34125;BMP280;20110;53.120;5.786;2023-12-20T07:00:16;101024.66;;;12.26
34125;BMP280;20110;53.120;5.786;2023-12-20T07:02:41;101048.72;;;12.34
34125;BMP280;20110;53.120;5.786;2023-12-20T07:05:07;101016.06;;;12.07
34125;BMP280;20110;53.120;5.786;2023-12-20T07:07:33;101001.84;;;12.04
34125;BMP280;20110;53.120;5.786;2023-12-20T07:09:58;101029.88;;;12.19
34125;BMP280;20110;53.120;5.786;2023-12-20T07:12:24;100986.41;;;11.90
34125;BMP280;20110;53.120;5.786;2023-12-20T07:14:50;101018.94;;;12.35
34125;BMP280;20110;53.120;5.786;2023-12-20T07:17:15;101035.25;;;12.66
34125;BMP280;20110;53.120;5.786;2023-12-20T07:19:42;101005.94;;;12.66
34125;BMP280;20110;53.120;5.786;2023-12-20T07:22:08;101034.69;;;12.80
34125;BMP280;20110;53.120;5.786;2023-12-20T07:24:33;101048.66;;;12.60
34125;BMP280;20110;53.120;5.786;2023-12-20T07:27:00;101036.41;;;12.44
34125;BMP280;20110;53.120;5.786;2023-12-20T07:29:26;101026.38;;;12.37
34125;BMP280;20110;53.120;5.786;2023-12-20T07:31:55;100936.06;;;11.79
34125;BMP280;20110;53.120;5.786;2023-12-20T07:34:21;101038.56;;;12.19
34125;BMP280;20110;53.120;5.786;2023-12-20T07:36:46;101023.22;;;12.12
34125;BMP280;20110;53.120;5.786;2023-12-20T07:39:13;101037.03;;;12.24
34125;BMP280;20110;53.120;5.786;2023-12-20T07:41:39;101063.88;;;12.13
34125;BMP280;20110;53.120;5.786;2023-12-20T07:44:05;101067.47;;;12.28
34125;BMP280;20110;53.120;5.786;2023-12-20T07:46:31;101054.44;;;12.25
34125;BMP280;20110;53.120;5.786;2023-12-20T07:48:56;101042.16;;;12.08
34125;BMP280;20110;53.120;5.786;2023-12-20T07:51:22;101064.69;;;12.07
34125;BMP280;20110;53.120;5.786;2023-12-20T07:53:48;101094.09;;;12.28
34125;BMP280;20110;53.120;5.786;2023-12-20T07:56:18;100953.53;;;11.61
34125;BMP280;20110;53.120;5.786;2023-12-20T07:58:44;101008.28;;;12.22
34125;BMP280;20110;53.120;5.786;2023-12-20T08:01:12;101019.22;;;12.19
34125;BMP280;20110;53.120;5.786;2023-12-20T08:03:43;101032.66;;;12.26
34125;BMP280;20110;53.120;5.786;2023-12-20T08:06:09;101006.25;;;12.02
34125;BMP280;20110;53.120;5.786;2023-12-20T08:08:35;101070.53;;;12.45
34125;BMP280;20110;53.120;5.786;2023-12-20T08:11:01;100971.75;;;11.70
34125;BMP280;20110;53.120;5.786;2023-12-20T08:13:28;101065.63;;;12.23
34125;BMP280;20110;53.120;5.786;2023-12-20T08:15:53;101056.72;;;12.21
34125;BMP280;20110;53.120;5.786;2023-12-20T08:18:21;101056.09;;;12.15
34125;BMP280;20110;53.120;5.786;2023-12-20T08:20:47;101037.66;;;11.90
34125;BMP280;20110;53.120;5.786;2023-12-20T08:23:14;101010.75;;;11.67
34125;BMP280;20110;53.120;5.786;2023-12-20T08:25:41;100909.69;;;11.09
34125;BMP280;20110;53.120;5.786;2023-12-20T08:28:06;101052.84;;;12.22
34125;BMP280;20110;53.120;5.786;2023-12-20T08:30:32;101032.53;;;12.05
34125;BMP280;20110;53.120;5.786;2023-12-20T08:33:01;101055.59;;;12.29
34125;BMP280;20110;53.120;5.786;2023-12-20T08:35:29;101000.00;;;11.99
34125;BMP280;20110;53.120;5.786;2023-12-20T08:37:56;101060.38;;;12.44
34125;BMP280;20110;53.120;5.786;2023-12-20T08:40:21;101037.59;;;12.09
34125;BMP280;20110;53.120;5.786;2023-12-20T08:42:47;101075.56;;;12.23
34125;BMP280;20110;53.120;5.786;2023-12-20T08:45:13;101104.16;;;12.35
34125;BMP280;20110;53.120;5.786;2023-12-20T08:47:38;101057.94;;;12.06
34125;BMP280;20110;53.120;5.786;2023-12-20T08:50:07;101078.31;;;12.30
34125;BMP280;20110;53.120;5.786;2023-12-20T08:52:33;100989.97;;;11.79
34125;BMP280;20110;53.120;5.786;2023-12-20T08:54:58;101032.53;;;12.05
34125;BMP280;20110;53.120;5.786;2023-12-20T08:57:24;101078.19;;;12.49
34125;BMP280;20110;53.120;5.786;2023-12-20T08:59:50;101072.59;;;12.26
34125;BMP280;20110;53.120;5.786;2023-12-20T09:02:17;101095.00;;;12.44
34125;BMP280;20110;53.120;5.786;2023-12-20T09:04:43;101073.59;;;12.36
34125;BMP280;20110;53.120;5.786;2023-12-20T09:07:25;101100.13;;;12.29
34125;BMP280;20110;53.120;5.786;2023-12-20T09:09:52;101105.47;;;12.29
34125;BMP280;20110;53.120;5.786;2023-12-20T09:12:20;101097.78;;;12.25
34125;BMP280;20110;53.120;5.786;2023-12-20T09:14:47;101134.47;;;12.45
34125;BMP280;20110;53.120;5.786;2023-12-20T09:17:13;101073.63;;;11.65
34125;BMP280;20110;53.120;5.786;2023-12-20T09:19:39;101161.59;;;11.86
34125;BMP280;20110;53.120;5.786;2023-12-20T09:22:05;101129.22;;;11.31
34125;BMP280;20110;53.120;5.786;2023-12-20T09:24:31;101137.78;;;11.05
34125;BMP280;20110;53.120;5.786;2023-12-20T09:26:57;101164.53;;;11.13
34125;BMP280;20110;53.120;5.786;2023-12-20T09:29:23;101151.25;;;10.88
34125;BMP280;20110;53.120;5.786;2023-12-20T09:31:48;101147.06;;;10.74
34125;BMP280;20110;53.120;5.786;2023-12-20T09:34:15;101142.03;;;10.70
34125;BMP280;20110;53.120;5.786;2023-12-20T09:36:42;101123.78;;;10.61
34125;BMP280;20110;53.120;5.786;2023-12-20T09:39:15;101133.75;;;10.80
34125;BMP280;20110;53.120;5.786;2023-12-20T09:41:45;101147.84;;;10.93
34125;BMP280;20110;53.120;5.786;2023-12-20T09:44:17;101155.81;;;11.12
34125;BMP280;20110;53.120;5.786;2023-12-20T09:46:49;101156.78;;;11.15
34125;BMP280;20110;53.120;5.786;2023-12-20T09:49:18;101157.19;;;11.19
34125;BMP280;20110;53.120;5.786;2023-12-20T09:51:46;101154.28;;;11.22
34125;BMP280;20110;53.120;5.786;2023-12-20T09:54:14;101106.94;;;10.96
34125;BMP280;20110;53.120;5.786;2023-12-20T09:56:41;101087.06;;;10.84
34125;BMP280;20110;53.120;5.786;2023-12-20T09:59:06;101115.72;;;10.91
34125;BMP280;20110;53.120;5.786;2023-12-20T10:01:34;101137.03;;;10.86
34125;BMP280;20110;53.120;5.786;2023-12-20T10:04:00;101161.47;;;11.03
34125;BMP280;20110;53.120;5.786;2023-12-20T10:06:26;101167.66;;;11.30
34125;BMP280;20110;53.120;5.786;2023-12-20T10:08:52;101130.44;;;11.11
34125;BMP280;20110;53.120;5.786;2023-12-20T10:11:18;101161.22;;;11.44
34125;BMP280;20110;53.120;5.786;2023-12-20T10:13:47;101154.44;;;11.43
34125;BMP280;20110;53.120;5.786;2023-12-20T10:16:13;101179.75;;;11.68
34125;BMP280;20110;53.120;5.786;2023-12-20T10:18:39;101074.50;;;11.03
34125;BMP280;20110;53.120;5.786;2023-12-20T10:21:06;101154.44;;;11.62
34125;BMP280;20110;53.120;5.786;2023-12-20T10:23:32;101163.06;;;11.68
34125;BMP280;20110;53.120;5.786;2023-12-20T10:26:00;101134.97;;;11.54
34125;BMP280;20110;53.120;5.786;2023-12-20T10:28:33;101147.03;;;11.73
34125;BMP280;20110;53.120;5.786;2023-12-20T10:31:01;101147.94;;;11.76
34125;BMP280;20110;53.120;5.786;2023-12-20T10:33:27;101164.38;;;11.93
34125;BMP280;20110;53.120;5.786;2023-12-20T10:35:58;101172.84;;;12.10
34125;BMP280;20110;53.120;5.786;2023-12-20T10:38:24;101123.91;;;11.82
34125;BMP280;20110;53.120;5.786;2023-12-20T10:40:54;101152.81;;;11.91
34125;BMP280;20110;53.120;5.786;2023-12-20T10:43:22;101156.16;;;12.10
34125;BMP280;20110;53.120;5.786;2023-12-20T10:45:48;101082.97;;;11.71
34125;BMP280;20110;53.120;5.786;2023-12-20T10:48:15;101120.72;;;12.15
34125;BMP280;20110;53.120;5.786;2023-12-20T10:50:41;101110.56;;;12.14
34125;BMP280;20110;53.120;5.786;2023-12-20T10:53:07;101072.78;;;12.02
34125;BMP280;20110;53.120;5.786;2023-12-20T10:55:33;101136.53;;;12.53
34125;BMP280;20110;53.120;5.786;2023-12-20T10:58:18;101134.47;;;12.45
34125;BMP280;20110;53.120;5.786;2023-12-20T11:00:47;101099.41;;;12.15
34125;BMP280;20110;53.120;5.786;2023-12-20T11:03:13;101057.00;;;11.78
34125;BMP280;20110;53.120;5.786;2023-12-20T11:06:00;101118.66;;;12.47
34125;BMP280;20110;53.120;5.786;2023-12-20T11:11:29;101099.00;;;12.51
34125;BMP280;20110;53.120;5.786;2023-12-20T11:14:15;101115.25;;;12.87
34125;BMP280;20110;53.120;5.786;2023-12-20T11:16:43;101092.69;;;12.88
34125;BMP280;20110;53.120;5.786;2023-12-20T11:19:11;101115.41;;;13.02
34125;BMP280;20110;53.120;5.786;2023-12-20T11:21:40;101097.59;;;12.83
34125;BMP280;20110;53.120;5.786;2023-12-20T11:24:05;101066.56;;;12.73
34125;BMP280;20110;53.120;5.786;2023-12-20T11:26:31;101072.03;;;12.67
34125;BMP280;20110;53.120;5.786;2023-12-20T11:34:50;101103.34;;;13.22
34125;BMP280;20110;53.120;5.786;2023-12-20T11:37:16;101106.53;;;13.41
34125;BMP280;20110;53.120;5.786;2023-12-20T11:39:43;101073.41;;;13.36
34125;BMP280;20110;53.120;5.786;2023-12-20T11:42:10;101074.41;;;13.46
34125;BMP280;20110;53.120;5.786;2023-12-20T11:44:36;101068.69;;;13.22
34125;BMP280;20110;53.120;5.786;2023-12-20T11:47:03;101075.72;;;13.11
34125;BMP280;20110;53.120;5.786;2023-12-20T11:49:29;101080.38;;;12.98
34125;BMP280;20110;53.120;5.786;2023-12-20T11:51:56;101033.03;;;12.43
34125;BMP280;20110;53.120;5.786;2023-12-20T11:54:23;101054.44;;;12.38
34125;BMP280;20110;53.120;5.786;2023-12-20T11:56:48;101015.88;;;12.05
34125;BMP280;20110;53.120;5.786;2023-12-20T11:59:15;101076.81;;;12.22
34125;BMP280;20110;53.120;5.786;2023-12-20T12:01:47;101051.47;;;11.89
34125;BMP280;20110;53.120;5.786;2023-12-20T12:04:14;101092.84;;;12.16
34125;BMP280;20110;53.120;5.786;2023-12-20T12:06:39;101052.81;;;11.95
34125;BMP280;20110;53.120;5.786;2023-12-20T12:09:05;101048.50;;;12.05
34125;BMP280;20110;53.120;5.786;2023-12-20T12:11:31;100977.63;;;11.36
34125;BMP280;20110;53.120;5.786;2023-12-20T12:13:57;101075.06;;;12.11
34125;BMP280;20110;53.120;5.786;2023-12-20T12:16:22;101083.31;;;12.07
34125;BMP280;20110;53.120;5.786;2023-12-20T12:18:58;101085.06;;;12.05
34125;BMP280;20110;53.120;5.786;2023-12-20T12:21:24;101094.88;;;11.97
34125;BMP280;20110;53.120;5.786;2023-12-20T12:23:50;101038.50;;;11.53
34125;BMP280;20110;53.120;5.786;2023-12-20T12:26:15;101068.88;;;11.45
34125;BMP280;20110;53.120;5.786;2023-12-20T12:28:41;101048.66;;;11.04
34125;BMP280;20110;53.120;5.786;2023-12-20T12:31:08;101068.16;;;12.42
34125;BMP280;20110;53.120;5.786;2023-12-20T12:33:34;101057.84;;;12.12
34125;BMP280;20110;53.120;5.786;2023-12-20T12:36:01;101065.41;;;11.31
34125;BMP280;20110;53.120;5.786;2023-12-20T12:38:27;101066.19;;;10.94
34125;BMP280;20110;53.120;5.786;2023-12-20T12:40:54;101027.25;;;10.59
34125;BMP280;20110;53.120;5.786;2023-12-20T12:43:20;101053.91;;;11.73
34125;BMP280;20110;53.120;5.786;2023-12-20T12:45:48;101032.34;;;12.17
34125;BMP280;20110;53.120;5.786;2023-12-20T12:48:14;101045.56;;;12.35
34125;BMP280;20110;53.120;5.786;2023-12-20T12:50:40;101040.84;;;12.28
34125;BMP280;20110;53.120;5.786;2023-12-20T12:53:05;100960.81;;;11.73
34125;BMP280;20110;53.120;5.786;2023-12-20T12:55:34;101035.72;;;12.30
34125;BMP280;20110;53.120;5.786;2023-12-20T12:58:01;100961.53;;;11.87
34125;BMP280;20110;53.120;5.786;2023-12-20T13:00:26;101055.56;;;12.56
34125;BMP280;20110;53.120;5.786;2023-12-20T13:02:52;100972.47;;;11.97
34125;BMP280;20110;53.120;5.786;2023-12-20T13:05:18;101050.50;;;12.65
34125;BMP280;20110;53.120;5.786;2023-12-20T13:07:44;101044.28;;;12.63
34125;BMP280;20110;53.120;5.786;2023-12-20T13:10:11;101040.41;;;11.39
34125;BMP280;20110;53.120;5.786;2023-12-20T13:12:36;101028.16;;;11.50
34125;BMP280;20110;53.120;5.786;2023-12-20T13:15:02;100974.78;;;11.74
34125;BMP280;20110;53.120;5.786;2023-12-20T13:17:29;100955.47;;;12.00
34125;BMP280;20110;53.120;5.786;2023-12-20T13:19:55;101018.50;;;12.44
34125;BMP280;20110;53.120;5.786;2023-12-20T13:22:21;101017.41;;;12.61
34125;BMP280;20110;53.120;5.786;2023-12-20T13:24:46;100980.34;;;12.63
34125;BMP280;20110;53.120;5.786;2023-12-20T13:27:12;100994.16;;;12.95
34125;BMP280;20110;53.120;5.786;2023-12-20T13:29:38;100951.09;;;12.70
34125;BMP280;20110;53.120;5.786;2023-12-20T13:32:04;100984.59;;;13.21
34125;BMP280;20110;53.120;5.786;2023-12-20T13:34:30;100976.16;;;13.09
34125;BMP280;20110;53.120;5.786;2023-12-20T13:36:57;100996.56;;;13.06
34125;BMP280;20110;53.120;5.786;2023-12-20T13:39:23;100936.59;;;12.58
34125;BMP280;20110;53.120;5.786;2023-12-20T13:41:49;100995.31;;;12.87
34125;BMP280;20110;53.120;5.786;2023-12-20T13:44:15;100932.69;;;12.25
34125;BMP280;20110;53.120;5.786;2023-12-20T13:46:41;100960.00;;;12.52
34125;BMP280;20110;53.120;5.786;2023-12-20T13:49:07;100986.34;;;12.76
34125;BMP280;20110;53.120;5.786;2023-12-20T13:51:32;100952.00;;;12.73
34125;BMP280;20110;53.120;5.786;2023-12-20T13:53:58;100942.00;;;12.66
34125;BMP280;20110;53.120;5.786;2023-12-20T13:56:25;100965.41;;;12.80
34125;BMP280;20110;53.120;5.786;2023-12-20T13:58:51;100971.97;;;12.79
34125;BMP280;20110;53.120;5.786;2023-12-20T14:01:17;100915.16;;;12.43